Time;durP1;ratioP1;P1;durP2;ratioP2;P2;SDS_P1;SDS_P2;PMS_P1;PMS_P2;Temp;Humidity;BMP_temperature;BMP_pressure;BME280_temperature;BME280_humidity;BME280_pressure;Samples;Min_cycle;Max_cycle;Signal;HPM_P1;HPM_P2
2021/03/29 00:00:59;;;;;;;501.55;194.65;;;;;;;-144.99;91.04;52327.84;5087690;28;20674;-76
2021/03/29 00:03:26;;;;;;;502.33;190.10;;;;;;;-144.99;90.86;52333.94;5085063;28;20319;-77
2021/03/29 00:05:52;;;;;;;515.43;222.37;;;;;;;-144.99;90.63;52336.00;5083213;28;20200;-74
2021/03/29 00:08:22;;;;;;;504.37;202.03;;;;;;;-144.99;91.00;52362.50;5083644;28;20660;-74
2021/03/29 00:10:52;;;;;;;502.50;191.88;;;;;;;-144.99;90.40;52350.25;5076730;28;20653;-75
2021/03/29 00:13:19;;;;;;;500.97;196.97;;;;;;;-144.99;90.48;52305.41;4728647;28;10000205;-75
2021/03/29 00:15:49;;;;;;;507.45;204.45;;;;;;;-144.99;90.28;52301.34;5081986;28;21125;-73
2021/03/29 00:18:15;;;;;;;505.77;196.32;;;;;;;-144.99;90.18;52340.06;5085224;28;20273;-73
2021/03/29 00:20:46;;;;;;;507.90;199.30;;;;;;;-144.99;90.15;52338.03;5083568;28;20578;-74
2021/03/29 00:23:12;;;;;;;505.42;198.88;;;;;;;-144.99;90.00;52295.22;5076146;28;20710;-73
2021/03/29 00:25:38;;;;;;;499.77;196.57;;;;;;;-144.99;90.10;52309.50;5074446;28;20223;-73
2021/03/29 00:28:05;;;;;;;503.73;201.65;;;;;;;-144.99;89.64;52321.72;5084936;28;20196;-72
2021/03/29 00:30:34;;;;;;;500.60;192.73;;;;;;;-144.99;89.38;52325.81;5083847;28;20687;-74
2021/03/29 00:33:00;;;;;;;501.65;196.38;;;;;;;-144.99;89.14;52344.16;5085441;28;20888;-74
2021/03/29 00:35:29;;;;;;;503.60;200.07;;;;;;;-144.99;89.14;52321.72;5085358;28;20212;-72
2021/03/29 00:37:58;;;;;;;506.48;202.00;;;;;;;-144.99;88.83;52329.88;5088850;28;20192;-73
2021/03/29 00:40:25;;;;;;;504.23;197.35;;;;;;;-144.99;88.76;52331.91;5081018;28;20219;-73
2021/03/29 00:42:57;;;;;;;506.75;203.45;;;;;;;-144.99;88.76;52278.91;5085151;28;20385;-73
2021/03/29 00:45:23;;;;;;;500.70;199.43;;;;;;;-144.99;88.35;52313.56;5081026;28;20203;-73
2021/03/29 00:47:49;;;;;;;502.55;195.02;;;;;;;-144.99;88.27;52280.97;5086762;28;20228;-75
2021/03/29 00:50:24;;;;;;;508.85;205.13;;;;;;;-144.99;88.07;52307.47;5089633;28;20212;-75
2021/03/29 00:52:51;;;;;;;507.75;197.88;;;;;;;-144.99;87.85;52309.50;5082678;28;20219;-74
2021/03/29 00:55:20;;;;;;;503.02;202.00;;;;;;;-144.99;87.73;52325.81;5089832;28;20663;-72
2021/03/29 00:57:46;;;;;;;503.58;198.45;;;;;;;-144.99;87.49;52325.81;5092878;28;20200;-75
2021/03/29 01:00:16;;;;;;;499.92;201.18;;;;;;;-144.99;87.53;52321.72;5089019;28;20195;-73
2021/03/29 01:02:43;;;;;;;503.02;206.30;;;;;;;-144.99;86.90;52342.09;5089315;28;20723;-73
2021/03/29 01:05:14;;;;;;;504.45;199.95;;;;;;;-144.99;87.01;52321.72;5086497;28;20635;-72
2021/03/29 01:07:41;;;;;;;500.58;201.57;;;;;;;-144.99;86.84;52325.81;5088325;28;20257;-73
2021/03/29 01:10:07;;;;;;;500.48;193.27;;;;;;;-144.99;86.84;52338.03;5088529;28;20187;-74
2021/03/29 01:12:35;;;;;;;504.80;202.48;;;;;;;-144.99;86.67;52305.41;5087187;28;20212;-73
2021/03/29 01:15:02;;;;;;;501.23;202.93;;;;;;;-144.99;86.69;52329.88;5088558;28;20384;-74
2021/03/29 01:17:31;;;;;;;503.38;201.95;;;;;;;-144.99;86.63;52346.19;5087806;28;20237;-74
2021/03/29 01:20:08;;;;;;;505.75;198.95;;;;;;;-144.99;86.90;52276.88;5087834;28;20207;-74
2021/03/29 01:22:37;;;;;;;501.98;199.45;;;;;;;-144.99;87.00;52329.88;5083431;28;20231;-75
2021/03/29 01:25:07;;;;;;;501.10;197.30;;;;;;;-144.99;87.14;52313.56;5088967;28;20192;-74
2021/03/29 01:27:36;;;;;;;502.00;199.35;;;;;;;-144.99;87.20;52317.66;5084244;28;20373;-74
2021/03/29 01:30:07;;;;;;;501.25;198.02;;;;;;;-144.99;87.52;52321.72;5084693;28;20212;-72
2021/03/29 01:32:34;;;;;;;500.10;194.80;;;;;;;-144.99;87.49;52309.50;5085758;28;20219;-75
2021/03/29 01:35:01;;;;;;;498.65;195.80;;;;;;;-144.99;87.43;52338.03;5087893;28;20298;-73
2021/03/29 01:37:29;;;;;;;498.48;193.43;;;;;;;-144.99;87.36;52303.38;5086921;28;20650;-73
2021/03/29 01:39:56;;;;;;;502.25;198.70;;;;;;;-144.99;87.37;52309.50;5121932;22;20250;-75
2021/03/29 01:42:23;;;;;;;503.80;196.18;;;;;;;-144.99;87.13;52313.56;5114132;27;20199;-74
2021/03/29 01:44:50;;;;;;;503.50;186.73;;;;;;;-144.99;87.35;52342.09;5122890;27;20629;-74
2021/03/29 01:47:17;;;;;;;498.73;192.88;;;;;;;-144.99;86.98;52352.28;5116573;27;20215;-73
2021/03/29 01:49:43;;;;;;;502.60;198.45;;;;;;;-144.99;86.56;52358.41;5112859;27;20223;-74
2021/03/29 01:52:09;;;;;;;500.38;194.20;;;;;;;-144.99;85.86;52342.09;5110108;27;20577;-75
2021/03/29 01:54:37;;;;;;;505.20;194.82;;;;;;;-144.99;85.50;52342.09;5111434;27;20248;-74
2021/03/29 01:57:06;;;;;;;503.95;199.30;;;;;;;-144.99;85.56;52317.66;5100376;27;20203;-74
2021/03/29 01:59:32;;;;;;;498.20;196.55;;;;;;;-144.99;85.54;52317.66;5106665;28;20219;-75
2021/03/29 02:02:00;;;;;;;502.40;194.45;;;;;;;-144.99;85.43;52346.19;5098892;28;20200;-75
2021/03/29 02:04:28;;;;;;;503.30;194.95;;;;;;;-144.99;85.40;52360.44;5111069;28;20199;-74
2021/03/29 02:06:55;;;;;;;500.13;195.30;;;;;;;-144.99;85.35;52346.19;5097079;28;20224;-75
2021/03/29 02:09:22;;;;;;;502.50;195.55;;;;;;;-144.99;85.33;52313.56;5095590;28;20234;-74
2021/03/29 02:11:48;;;;;;;504.33;202.48;;;;;;;-144.99;85.11;52321.72;5109828;27;20593;-74
2021/03/29 02:14:16;;;;;;;501.52;191.75;;;;;;;-144.99;84.74;52309.50;5104575;28;20211;-72
2021/03/29 02:16:42;;;;;;;502.55;190.10;;;;;;;-144.99;84.42;52297.25;5113579;27;20206;-72
2021/03/29 02:19:09;;;;;;;498.40;190.30;;;;;;;-144.99;84.42;52342.09;5103214;28;20219;-72
2021/03/29 02:21:39;;;;;;;498.17;195.73;;;;;;;-144.99;84.10;52342.09;5107275;28;20199;-71
2021/03/29 02:24:06;;;;;;;506.40;193.23;;;;;;;-144.99;84.32;52299.31;5100596;27;20207;-72
2021/03/29 02:26:37;;;;;;;498.30;208.25;;;;;;;-144.99;84.40;52297.25;5096691;28;20223;-71
2021/03/29 02:29:05;;;;;;;503.77;202.30;;;;;;;-144.99;84.70;52338.03;5109940;27;20250;-71
2021/03/29 02:31:31;;;;;;;504.20;210.95;;;;;;;-144.99;84.26;52344.16;5106208;27;20411;-72
2021/03/29 02:33:58;;;;;;;498.20;195.35;;;;;;;-144.99;84.14;52305.41;5111840;27;20191;-72
2021/03/29 02:36:26;;;;;;;501.38;202.85;;;;;;;-144.99;83.66;52305.41;5106678;27;20653;-69
2021/03/29 02:38:52;;;;;;;504.50;205.88;;;;;;;-144.99;83.29;52303.38;5099043;27;20200;-71
2021/03/29 02:41:21;;;;;;;500.75;202.32;;;;;;;-144.99;83.46;52360.44;5112012;27;20708;-71
2021/03/29 02:43:48;;;;;;;501.35;204.02;;;;;;;-144.99;83.36;52338.03;5105576;27;20192;-72
2021/03/29 02:46:15;;;;;;;501.95;208.70;;;;;;;-144.99;83.20;52317.66;5104613;27;20287;-71
2021/03/29 02:48:44;;;;;;;502.05;210.32;;;;;;;-144.99;83.23;52317.66;5102605;27;20207;-74
2021/03/29 02:51:12;;;;;;;502.85;208.90;;;;;;;-144.99;83.18;52338.03;5108082;27;20223;-74
2021/03/29 02:53:44;;;;;;;500.08;203.88;;;;;;;-144.99;83.04;52338.03;5113849;27;20191;-74
2021/03/29 02:56:17;;;;;;;506.67;212.27;;;;;;;-144.99;82.45;52325.81;5106567;27;20191;-74
2021/03/29 02:58:48;;;;;;;500.95;205.75;;;;;;;-144.99;82.64;52325.81;5092503;27;20433;-71
2021/03/29 03:01:15;;;;;;;502.55;204.23;;;;;;;-144.99;82.49;52329.88;5106777;27;20325;-71
2021/03/29 03:03:43;;;;;;;504.63;215.48;;;;;;;-144.99;82.44;52329.88;5108051;27;20210;-72
2021/03/29 03:06:09;;;;;;;499.50;217.50;;;;;;;-144.99;82.40;52317.66;5105103;27;20205;-75
2021/03/29 03:08:36;;;;;;;502.75;233.20;;;;;;;-144.99;82.17;52289.13;5108268;27;20198;-74
2021/03/29 03:11:04;;;;;;;501.40;211.32;;;;;;;-144.99;82.29;52297.25;5107356;27;20215;-75
2021/03/29 03:13:30;;;;;;;498.92;206.65;;;;;;;-144.99;82.30;52340.06;5108212;27;20270;-75
2021/03/29 03:15:56;;;;;;;496.10;195.35;;;;;;;-144.99;82.36;52329.88;5108151;27;20208;-75
2021/03/29 03:18:22;;;;;;;505.42;209.90;;;;;;;-144.99;82.27;52338.03;5103692;27;20249;-74
2021/03/29 03:20:48;;;;;;;500.70;207.25;;;;;;;-144.99;82.39;52342.09;5104142;27;20692;-73
2021/03/29 03:23:16;;;;;;;500.65;211.02;;;;;;;-144.99;82.04;52309.50;5111730;27;20251;-73
2021/03/29 03:25:44;;;;;;;502.10;210.50;;;;;;;-144.99;82.57;52313.56;5100604;27;20216;-73
2021/03/29 03:28:12;;;;;;;499.80;203.90;;;;;;;-144.99;82.47;52301.34;5105081;27;20219;-71
2021/03/29 03:30:40;;;;;;;499.33;208.18;;;;;;;-144.99;82.99;52333.94;5102798;28;20465;-73
2021/03/29 03:33:08;;;;;;;497.85;208.13;;;;;;;-144.99;82.76;52358.41;5113216;27;20650;-74
2021/03/29 03:35:36;;;;;;;501.83;220.48;;;;;;;-144.99;82.65;52305.41;5100565;28;20256;-74
2021/03/29 03:38:09;;;;;;;501.60;224.23;;;;;;;-144.99;82.79;52333.94;5097934;28;20200;-73
2021/03/29 03:40:37;;;;;;;500.75;213.30;;;;;;;-144.99;82.67;52315.59;5099128;27;20228;-72
2021/03/29 03:43:06;;;;;;;502.02;222.93;;;;;;;-144.99;82.49;52350.25;5105869;27;20191;-74
2021/03/29 03:45:36;;;;;;;501.10;216.02;;;;;;;-144.99;82.16;52325.81;5096086;27;20207;-75
2021/03/29 03:48:03;;;;;;;9.57;3.57;;;;;;;-144.99;82.03;52329.88;5099424;28;20227;-73
2021/03/29 03:50:30;;;;;;;6.80;3.07;;;;;;;-144.99;82.14;52329.88;5105684;28;20253;-74
2021/03/29 03:52:57;;;;;;;172.90;139.63;;;;;;;-144.99;82.21;52313.56;5099920;27;20210;-74
2021/03/29 03:55:24;;;;;;;192.93;175.97;;;;;;;-144.99;82.34;52356.38;5108816;27;20192;-73
2021/03/29 03:57:51;;;;;;;171.10;157.00;;;;;;;-144.99;82.02;52382.88;5102678;28;20215;-73
2021/03/29 04:00:19;;;;;;;544.40;291.87;;;;;;;-144.99;82.04;52321.72;5098347;28;20230;-74
2021/03/29 04:02:49;;;;;;;510.30;255.83;;;;;;;-144.99;82.60;52333.94;5100713;28;21183;-70
2021/03/29 04:05:16;;;;;;;493.90;239.93;;;;;;;-144.99;83.02;52309.50;5102184;28;21042;-72
2021/03/29 04:07:43;;;;;;;493.30;226.77;;;;;;;-144.99;83.84;52338.03;5105782;27;20225;-73
2021/03/29 04:10:15;;;;;;;488.95;216.93;;;;;;;-144.99;84.14;52333.94;5111280;27;20507;-72
2021/03/29 04:12:43;;;;;;;495.75;214.05;;;;;;;-144.99;83.64;52325.81;5111092;28;20208;-72
2021/03/29 04:15:10;;;;;;;492.10;201.90;;;;;;;-144.99;83.80;52350.25;5093579;28;20205;-71
2021/03/29 04:17:36;;;;;;;494.23;204.02;;;;;;;-144.99;83.91;52338.03;5103260;28;20196;-73
2021/03/29 04:20:04;;;;;;;516.53;288.23;;;;;;;-144.99;84.04;52350.25;5098713;28;20743;-71
2021/03/29 04:22:30;;;;;;;495.23;219.45;;;;;;;-144.99;84.42;52350.25;5107344;27;20203;-73
2021/03/29 04:24:56;;;;;;;499.63;231.50;;;;;;;-144.99;84.92;52356.38;5106374;28;20191;-73
2021/03/29 04:27:22;;;;;;;501.87;239.23;;;;;;;-144.99;85.47;52315.59;5104099;28;20233;-72
2021/03/29 04:29:48;;;;;;;508.42;272.02;;;;;;;-144.99;86.04;52342.09;5101331;28;20675;-71
2021/03/29 04:32:14;;;;;;;509.53;263.20;;;;;;;-144.99;86.07;52338.03;5110164;28;20676;-74
2021/03/29 04:34:40;;;;;;;510.27;305.13;;;;;;;-144.99;85.90;52350.25;5108155;28;20195;-73
2021/03/29 04:37:07;;;;;;;502.43;295.67;;;;;;;-144.99;85.88;52342.09;5096828;28;20393;-73
2021/03/29 04:39:33;;;;;;;514.47;375.83;;;;;;;-144.99;85.59;52391.03;5107298;28;20675;-74
2021/03/29 04:41:59;;;;;;;494.90;285.10;;;;;;;-144.99;85.68;52354.34;5105521;28;20200;-71
2021/03/29 04:44:25;;;;;;;496.87;318.97;;;;;;;-144.99;85.51;52329.88;5107199;28;20646;-72
2021/03/29 04:46:51;;;;;;;491.48;254.85;;;;;;;-144.99;85.53;52395.09;5105882;28;20667;-71
2021/03/29 04:49:17;;;;;;;459.20;153.93;;;;;;;-144.99;85.49;52313.56;5104472;28;20593;-71
2021/03/29 04:51:43;;;;;;;459.37;171.37;;;;;;;-144.99;85.53;52329.88;5105771;28;20685;-72
2021/03/29 04:54:10;;;;;;;518.50;330.52;;;;;;;-144.99;85.44;52354.34;5107966;28;20271;-73
2021/03/29 04:56:36;;;;;;;521.88;324.58;;;;;;;-144.99;85.22;52350.25;5102374;28;20673;-70
2021/03/29 04:59:02;;;;;;;510.77;321.33;;;;;;;-144.99;85.10;52354.34;5102034;28;20295;-74
2021/03/29 05:01:28;;;;;;;517.90;329.48;;;;;;;-144.99;85.12;52346.19;5105352;28;20613;-72
2021/03/29 05:03:54;;;;;;;503.50;305.53;;;;;;;-144.99;84.96;52315.59;5105764;28;20256;-73
2021/03/29 05:06:20;;;;;;;518.47;373.37;;;;;;;-144.99;85.16;52321.72;5098407;28;20318;-73
2021/03/29 05:08:46;;;;;;;500.43;321.90;;;;;;;-144.99;85.17;52399.19;5109935;28;21067;-73
2021/03/29 05:11:13;;;;;;;518.80;383.80;;;;;;;-144.99;85.33;52325.81;5098650;28;20227;-72
2021/03/29 05:13:39;;;;;;;495.20;267.55;;;;;;;-144.99;85.27;52333.94;5104976;28;20765;-71
2021/03/29 05:16:06;;;;;;;495.90;278.00;;;;;;;-144.99;84.98;52325.81;5096469;28;20747;-72
2021/03/29 05:18:31;;;;;;;466.75;197.63;;;;;;;-144.99;84.80;52342.09;5106018;28;20473;-73
2021/03/29 05:20:57;;;;;;;485.77;265.37;;;;;;;-144.99;84.63;52329.88;5113761;28;20481;-73
2021/03/29 05:23:23;;;;;;;485.90;208.53;;;;;;;-144.99;84.59;52317.66;5105626;28;20199;-72
2021/03/29 05:25:49;;;;;;;480.77;180.53;;;;;;;-144.99;84.38;52358.41;5108250;27;20203;-75
2021/03/29 05:28:17;;;;;;;509.17;295.45;;;;;;;-144.99;84.31;52333.94;5104729;27;20303;-74
2021/03/29 05:30:43;;;;;;;486.20;302.05;;;;;;;-144.99;84.32;52358.41;5107420;27;20708;-73
2021/03/29 05:33:09;;;;;;;487.20;271.73;;;;;;;-144.99;83.87;52358.41;5107014;27;20218;-76
2021/03/29 05:35:35;;;;;;;496.65;314.27;;;;;;;-144.99;84.07;52329.88;5109682;27;21079;-73
2021/03/29 05:38:01;;;;;;;490.67;304.97;;;;;;;-144.99;83.87;52333.94;5105360;27;20355;-74
2021/03/29 05:40:27;;;;;;;489.87;294.03;;;;;;;-144.99;83.82;52333.94;5109415;27;20782;-74
2021/03/29 05:42:54;;;;;;;496.42;329.70;;;;;;;-144.99;83.83;52317.66;5110779;28;20529;-74
2021/03/29 05:45:22;;;;;;;482.05;231.88;;;;;;;-144.99;83.63;52386.94;5107304;27;20204;-73
2021/03/29 05:47:48;;;;;;;481.58;225.27;;;;;;;-144.99;83.30;52362.50;5108885;27;20218;-72
2021/03/29 05:50:16;;;;;;;476.98;199.55;;;;;;;-144.99;83.11;52338.03;5108040;27;20254;-73
2021/03/29 05:52:44;;;;;;;478.83;185.57;;;;;;;-144.99;83.22;52293.19;5114455;27;20206;-73
2021/03/29 05:55:15;;;;;;;474.08;173.05;;;;;;;-144.99;83.14;52329.88;5105943;27;20219;-72
2021/03/29 05:57:43;;;;;;;474.25;172.75;;;;;;;-144.99;83.22;52329.88;5107216;27;20203;-73
2021/03/29 06:00:32;;;;;;;474.20;168.38;;;;;;;-144.99;82.97;52325.81;5110701;27;20215;-72
2021/03/29 06:03:18;;;;;;;477.45;165.82;;;;;;;-144.99;83.36;52325.81;5114277;27;20195;-74
2021/03/29 06:05:44;;;;;;;476.35;170.15;;;;;;;-144.99;82.99;52350.25;5103790;27;20661;-74
2021/03/29 06:08:10;;;;;;;471.98;174.50;;;;;;;-144.99;82.73;52342.09;5109988;27;20260;-74
2021/03/29 06:10:36;;;;;;;480.10;175.43;;;;;;;-144.99;82.69;52344.16;5106126;27;20220;-73
2021/03/29 06:13:14;;;;;;;475.10;167.80;;;;;;;-144.99;82.65;52317.66;5105531;27;20265;-73
2021/03/29 06:15:41;;;;;;;476.02;171.48;;;;;;;-144.99;82.55;52338.03;5102419;28;20324;-72
2021/03/29 06:18:11;;;;;;;479.63;170.20;;;;;;;-144.99;82.68;52342.09;5098495;27;20196;-73
2021/03/29 06:20:59;;;;;;;475.30;176.13;;;;;;;-144.99;82.68;52358.41;5100780;27;20850;-73
2021/03/29 06:23:25;;;;;;;483.05;171.88;;;;;;;-144.99;82.24;52354.34;5108197;27;20200;-72
2021/03/29 06:25:51;;;;;;;479.48;170.25;;;;;;;-144.99;82.39;52338.03;5110513;27;20203;-72
2021/03/29 06:28:26;;;;;;;478.02;177.10;;;;;;;-144.99;82.11;52327.84;5106723;27;20219;-72
2021/03/29 06:30:53;;;;;;;476.92;179.73;;;;;;;-144.99;81.77;52333.94;5095955;28;20484;-72
2021/03/29 06:33:19;;;;;;;495.27;302.65;;;;;;;-144.99;81.35;52280.97;5107496;27;20349;-73
2021/03/29 06:35:47;;;;;;;473.13;273.25;;;;;;;-144.99;80.76;52305.41;5102235;27;20990;-73
2021/03/29 06:38:15;;;;;;;482.15;308.92;;;;;;;-144.99;80.78;52350.25;5107279;27;20222;-73
2021/03/29 06:40:45;;;;;;;467.10;209.38;;;;;;;-144.99;80.79;52309.50;5101867;27;20219;-74
2021/03/29 06:43:24;;;;;;;467.13;226.88;;;;;;;-144.99;81.67;52305.41;5105920;27;20217;-73
2021/03/29 06:45:52;;;;;;;494.98;276.98;;;;;;;-144.99;83.50;52342.09;5109726;27;20211;-72
2021/03/29 06:48:21;;;;;;;475.58;192.02;;;;;;;-144.99;83.61;52338.03;5104667;28;20219;-72
2021/03/29 06:50:47;;;;;;;486.27;264.27;;;;;;;-144.99;84.49;52329.88;5097427;27;20322;-72
2021/03/29 06:53:25;;;;;;;484.30;220.00;;;;;;;-144.99;85.24;52329.88;5108144;27;20198;-73
2021/03/29 06:55:56;;;;;;;473.58;225.90;;;;;;;-144.99;84.92;52340.06;5105932;28;20202;-73
2021/03/29 06:58:25;;;;;;;507.88;347.38;;;;;;;-144.99;85.33;52309.50;5107595;27;20196;-74
2021/03/29 07:00:55;;;;;;;517.55;413.92;;;;;;;-144.99;85.28;52333.94;5110762;28;20379;-73
2021/03/29 07:03:22;;;;;;;523.72;430.90;;;;;;;-144.99;85.40;52313.56;5104094;28;20211;-74
2021/03/29 07:05:49;;;;;;;520.38;431.58;;;;;;;-144.99;84.50;52280.97;5100855;28;20260;-75
2021/03/29 07:08:16;;;;;;;449.50;162.98;;;;;;;-144.99;84.46;52325.81;5107942;27;20215;-73
2021/03/29 07:10:42;;;;;;;452.90;126.53;;;;;;;-144.99;84.42;52325.81;5109494;28;20226;-73
2021/03/29 07:13:09;;;;;;;458.75;134.20;;;;;;;-144.99;84.73;52317.66;5101397;28;20635;-74
2021/03/29 07:15:37;;;;;;;480.00;213.50;;;;;;;-144.99;84.01;52321.72;5103178;28;20207;-74
2021/03/29 07:18:03;;;;;;;457.63;145.95;;;;;;;-144.99;84.06;52329.88;5110372;27;20516;-74
2021/03/29 07:20:33;;;;;;;453.77;143.93;;;;;;;-144.99;83.43;52333.94;5103511;28;20230;-73
2021/03/29 07:22:59;;;;;;;463.27;178.15;;;;;;;-144.99;83.04;52329.88;5106114;28;20253;-73
2021/03/29 07:25:31;;;;;;;476.45;250.88;;;;;;;-144.99;82.85;52346.19;5106525;28;20660;-72
2021/03/29 07:27:59;;;;;;;454.58;147.85;;;;;;;-144.99;82.34;52329.88;5102103;27;20771;-74
2021/03/29 07:30:44;;;;;;;481.35;153.88;;;;;;;-144.99;81.54;52338.03;5112430;27;20834;-73
2021/03/29 07:33:10;;;;;;;464.45;151.38;;;;;;;-144.99;81.45;52309.50;5104653;28;20193;-73
2021/03/29 07:35:45;;;;;;;483.85;148.68;;;;;;;-144.99;81.79;52305.41;5098643;28;20622;-73
2021/03/29 07:38:12;;;;;;;471.20;142.43;;;;;;;-144.99;82.42;52346.19;5103443;27;20195;-72
2021/03/29 07:40:41;;;;;;;473.33;160.25;;;;;;;-144.99;82.13;52321.72;5111003;27;20238;-72
2021/03/29 07:43:11;;;;;;;496.35;169.93;;;;;;;-144.99;82.01;52358.41;5101389;27;20637;-72
2021/03/29 07:45:55;;;;;;;476.23;143.18;;;;;;;-144.99;81.35;52276.88;5105149;27;20262;-72
2021/03/29 07:48:39;;;;;;;491.88;158.13;;;;;;;-144.99;81.40;52317.66;5107307;27;20221;-72
2021/03/29 07:51:09;;;;;;;499.55;144.85;;;;;;;-144.99;80.79;52311.53;5111110;27;20211;-71
2021/03/29 07:53:47;;;;;;;490.35;140.30;;;;;;;-144.99;80.76;52315.59;5125266;22;20224;-78
2021/03/29 07:56:44;;;;;;;495.92;141.23;;;;;;;-144.99;80.45;52325.81;5072593;28;20213;-77
2021/03/29 07:59:12;;;;;;;512.67;160.90;;;;;;;-144.99;80.39;52301.34;5070432;28;20200;-77
2021/03/29 08:02:00;;;;;;;517.85;156.60;;;;;;;-144.99;80.55;52309.50;5079709;28;20197;-77
2021/03/29 08:05:00;;;;;;;534.72;187.40;;;;;;;-144.99;80.61;52329.88;5068682;28;20329;-77
2021/03/29 08:07:42;;;;;;;531.50;154.38;;;;;;;-144.99;80.76;52313.56;5072471;28;20239;-76
2021/03/29 08:10:22;;;;;;;530.30;156.68;;;;;;;-144.99;80.22;52272.81;5069901;28;20375;-77
2021/03/29 08:13:00;;;;;;;534.50;164.52;;;;;;;-144.99;80.12;52311.53;5071501;28;20251;-79
2021/03/29 08:16:02;;;;;;;469.45;157.10;;;;;;;-144.99;79.95;52321.72;5074488;28;20266;-76
2021/03/29 08:18:46;;;;;;;529.20;185.32;;;;;;;-144.99;79.92;52313.56;5073577;28;20283;-79
2021/03/29 08:21:45;;;;;;;537.75;178.60;;;;;;;-144.99;79.44;52317.66;5049821;28;20684;-77
2021/03/29 08:24:24;;;;;;;548.85;173.52;;;;;;;-144.99;79.92;52272.81;5055349;28;20224;-77
2021/03/29 08:26:56;;;;;;;516.95;214.35;;;;;;;-144.99;79.72;52287.06;5060396;28;20224;-76
2021/03/29 08:29:29;;;;;;;486.55;210.30;;;;;;;-144.99;79.28;52268.72;5073503;28;20260;-77
2021/03/29 08:32:14;;;;;;;477.27;184.52;;;;;;;-144.99;79.77;52289.13;5066239;28;20584;-75
2021/03/29 08:34:53;;;;;;;473.92;208.57;;;;;;;-144.99;79.25;52325.81;5070424;28;20229;-76
2021/03/29 08:37:23;;;;;;;481.35;220.00;;;;;;;-144.99;78.95;52309.50;5063189;28;20208;-74
2021/03/29 08:39:52;;;;;;;514.20;314.77;;;;;;;-144.99;78.72;52285.03;5070918;28;20250;-75
2021/03/29 08:42:24;;;;;;;492.87;260.73;;;;;;;-144.99;78.17;52266.69;5070798;28;20630;-78
2021/03/29 08:44:53;;;;;;;208.60;186.57;;;;;;;-144.99;78.16;52293.19;5072160;28;20650;-81
2021/03/29 08:47:22;;;;;;;425.73;228.17;;;;;;;-144.99;77.79;52260.56;5072541;28;20220;-75
2021/03/29 08:49:52;;;;;;;12.17;8.27;;;;;;;-144.99;77.45;52307.47;5067946;28;20205;-75
2021/03/29 08:52:19;;;;;;;12.40;5.93;;;;;;;-144.99;77.26;52301.34;5068125;28;20296;-78
2021/03/29 08:55:02;;;;;;;445.77;275.57;;;;;;;-144.99;77.42;52280.97;5074031;28;20252;-78
2021/03/29 08:57:31;;;;;;;370.03;270.53;;;;;;;-144.99;76.36;52311.53;5073457;28;20224;-77
2021/03/29 09:00:00;;;;;;;509.30;252.83;;;;;;;-144.99;76.52;52295.22;5076093;28;20609;-78
2021/03/29 09:02:27;;;;;;;303.93;176.93;;;;;;;-144.99;76.22;52266.69;5070496;28;20216;-76
2021/03/29 09:04:56;;;;;;;11.83;4.77;;;;;;;-144.99;76.32;52268.72;5079684;28;20252;-78
2021/03/29 09:07:28;;;;;;;423.70;300.40;;;;;;;-144.99;76.09;52301.34;5079351;28;20248;-78
2021/03/29 09:09:56;;;;;;;440.67;261.27;;;;;;;-144.99;76.18;52272.81;5070219;28;20282;-78
2021/03/29 09:12:24;;;;;;;143.67;134.03;;;;;;;-144.99;75.92;52280.97;5078435;28;20208;-78
2021/03/29 09:14:51;;;;;;;9.63;4.97;;;;;;;-144.99;75.56;52303.38;5076456;28;20280;-77
2021/03/29 09:17:30;;;;;;;11.17;4.13;;;;;;;-144.99;74.44;52272.81;5078348;28;20205;-77
2021/03/29 09:19:58;;;;;;;16.00;4.77;;;;;;;-144.99;73.93;52293.19;5071208;28;20200;-78
2021/03/29 09:22:42;;;;;;;8.57;5.03;;;;;;;-144.99;74.25;52289.13;5075686;28;20273;-78
2021/03/29 09:25:10;;;;;;;11.60;4.10;;;;;;;-144.99;74.14;52303.38;5071307;28;20251;-77
2021/03/29 09:27:40;;;;;;;8.20;4.30;;;;;;;-144.99;73.09;52240.19;5079026;28;20216;-79
2021/03/29 09:30:11;;;;;;;5.73;3.23;;;;;;;-144.99;72.67;52295.22;5077481;28;20246;-76
2021/03/29 09:32:41;;;;;;;9.67;3.40;;;;;;;-144.99;71.23;52242.22;5081628;28;20211;-76
2021/03/29 09:35:09;;;;;;;15.13;3.93;;;;;;;-144.99;70.44;52262.63;5085044;28;20416;-77
2021/03/29 09:37:35;;;;;;;8.80;4.27;;;;;;;-144.99;70.32;52256.50;5077109;28;20673;-77
2021/03/29 09:40:05;;;;;;;7.83;4.17;;;;;;;-144.99;69.84;52289.13;5082928;28;20678;-78
2021/03/29 09:42:40;;;;;;;9.13;4.00;;;;;;;-144.99;69.61;52256.50;5084325;28;20252;-78
2021/03/29 09:45:08;;;;;;;8.40;3.83;;;;;;;-144.99;69.54;52260.56;5084600;28;20225;-83
2021/03/29 09:47:35;;;;;;;11.70;4.23;;;;;;;-144.99;68.46;52268.72;5079306;28;20688;-77
2021/03/29 09:50:04;;;;;;;6.80;3.73;;;;;;;-144.99;69.04;52199.44;5082988;28;20198;-77
2021/03/29 09:52:37;;;;;;;11.43;3.70;;;;;;;-144.99;68.75;52250.38;5072524;28;20199;-77
2021/03/29 09:55:04;;;;;;;10.97;5.03;;;;;;;-144.99;68.34;52268.72;5077699;28;20230;-76
2021/03/29 09:57:37;;;;;;;12.70;4.50;;;;;;;-144.99;68.25;52248.34;5078170;28;20198;-74
2021/03/29 10:00:17;;;;;;;9.90;4.20;;;;;;;-144.99;66.86;52264.66;5073832;28;20209;-72
2021/03/29 10:02:44;;;;;;;9.03;4.53;;;;;;;-144.99;67.19;52244.28;5072124;28;20204;-75
2021/03/29 10:05:12;;;;;;;10.07;4.97;;;;;;;-144.99;64.91;52227.97;5072082;28;20283;-74
2021/03/29 10:07:50;;;;;;;10.97;4.20;;;;;;;-144.99;63.79;52223.88;5072840;28;20276;-74
2021/03/29 10:10:24;;;;;;;15.63;4.37;;;;;;;-144.99;64.68;52256.50;5073239;28;20238;-76
2021/03/29 10:12:51;;;;;;;12.20;4.97;;;;;;;-144.99;65.42;52256.50;5074841;28;20261;-76
2021/03/29 10:15:17;;;;;;;12.87;5.67;;;;;;;-144.99;65.56;52223.88;5076732;28;20200;-77
2021/03/29 10:17:44;;;;;;;11.50;4.90;;;;;;;-144.99;65.23;52244.28;5087014;28;20227;-77
2021/03/29 10:20:14;;;;;;;10.77;4.50;;;;;;;-144.99;65.05;52217.78;5079804;28;20247;-75
2021/03/29 10:22:40;;;;;;;10.67;4.90;;;;;;;-144.99;64.02;52211.66;5084461;28;20209;-78
2021/03/29 10:25:13;;;;;;;11.57;4.43;;;;;;;-144.99;62.96;52195.34;5083104;28;20235;-77
2021/03/29 10:27:41;;;;;;;11.60;5.87;;;;;;;-144.99;62.72;52215.75;5077454;28;20235;-73
2021/03/29 10:30:09;;;;;;;14.03;5.20;;;;;;;-144.99;60.57;52199.44;5074085;28;20200;-73
2021/03/29 10:32:36;;;;;;;6.43;4.33;;;;;;;-144.99;58.39;52150.53;5074817;28;20292;-75
2021/03/29 10:35:02;;;;;;;11.50;4.23;;;;;;;-144.99;58.20;52174.97;5077963;28;20211;-78
2021/03/29 10:37:33;;;;;;;10.60;5.20;;;;;;;-144.99;58.63;52136.25;5081191;28;20265;-81
2021/03/29 10:40:01;;;;;;;8.07;3.70;;;;;;;-144.99;58.03;52199.44;5063526;28;20204;-76
2021/03/29 10:42:28;;;;;;;6.43;4.00;;;;;;;-144.99;59.60;52223.88;5081037;28;20243;-74
2021/03/29 10:44:55;;;;;;;14.07;5.17;;;;;;;-144.99;61.18;52256.50;5074330;28;20209;-76
2021/03/29 10:47:22;;;;;;;10.67;5.87;;;;;;;-144.99;62.51;52289.13;5074033;28;20216;-74
2021/03/29 10:49:48;;;;;;;15.87;4.47;;;;;;;-144.99;64.75;52248.34;5074919;28;20217;-75
2021/03/29 10:52:16;;;;;;;10.93;3.80;;;;;;;-144.99;63.85;52077.16;5071917;28;20357;-74
2021/03/29 10:54:43;;;;;;;14.23;4.93;;;;;;;-144.99;60.75;52069.00;5074330;28;20411;-75
2021/03/29 10:57:09;;;;;;;7.30;4.10;;;;;;;-144.99;59.02;52052.69;5072955;28;20262;-75
2021/03/29 10:59:35;;;;;;;9.27;4.47;;;;;;;-144.99;58.55;52093.44;5072417;28;20233;-78
2021/03/29 11:02:01;;;;;;;10.17;4.57;;;;;;;-144.99;58.77;52138.28;5073364;28;20197;-76